sensor_id;sensor_type;location;lat;lon;timestamp;P1;durP1;ratioP1;P2;durP2;ratioP2
25263;SDS011;13211;51.796;5.808;2022-07-21T00:03:33;29.45;;;19.73;;
25263;SDS011;13211;51.796;5.808;2022-07-21T00:06:03;26.90;;;18.67;;
25263;SDS011;13211;51.796;5.808;2022-07-21T00:08:30;25.55;;;19.23;;
25263;SDS011;13211;51.796;5.808;2022-07-21T00:10:58;26.77;;;19.75;;
25263;SDS011;13211;51.796;5.808;2022-07-21T00:13:26;30.15;;;19.75;;
25263;SDS011;13211;51.796;5.808;2022-07-21T00:15:54;29.65;;;20.08;;
25263;SDS011;13211;51.796;5.808;2022-07-21T00:18:25;31.60;;;20.85;;
25263;SDS011;13211;51.796;5.808;2022-07-21T00:20:55;30.35;;;21.38;;
25263;SDS011;13211;51.796;5.808;2022-07-21T00:23:23;37.33;;;21.00;;
25263;SDS011;13211;51.796;5.808;2022-07-21T00:25:52;28.10;;;20.80;;
25263;SDS011;13211;51.796;5.808;2022-07-21T00:28:20;27.58;;;20.73;;
25263;SDS011;13211;51.796;5.808;2022-07-21T00:30:53;32.10;;;21.30;;
25263;SDS011;13211;51.796;5.808;2022-07-21T00:33:21;33.35;;;22.30;;
25263;SDS011;13211;51.796;5.808;2022-07-21T00:35:51;31.38;;;21.75;;
25263;SDS011;13211;51.796;5.808;2022-07-21T00:38:18;29.77;;;21.70;;
25263;SDS011;13211;51.796;5.808;2022-07-21T00:40:46;27.73;;;20.92;;
25263;SDS011;13211;51.796;5.808;2022-07-21T00:43:13;29.42;;;21.23;;
25263;SDS011;13211;51.796;5.808;2022-07-21T00:45:45;32.17;;;21.20;;
25263;SDS011;13211;51.796;5.808;2022-07-21T00:48:12;33.88;;;22.17;;
25263;SDS011;13211;51.796;5.808;2022-07-21T00:50:40;35.17;;;22.00;;
25263;SDS011;13211;51.796;5.808;2022-07-21T00:53:08;27.75;;;19.88;;
25263;SDS011;13211;51.796;5.808;2022-07-21T00:55:36;33.95;;;20.30;;
25263;SDS011;13211;51.796;5.808;2022-07-21T00:58:03;26.42;;;20.15;;
25263;SDS011;13211;51.796;5.808;2022-07-21T01:00:31;28.38;;;20.88;;
25263;SDS011;13211;51.796;5.808;2022-07-21T01:03:05;30.42;;;20.90;;
25263;SDS011;13211;51.796;5.808;2022-07-21T01:05:33;31.20;;;21.20;;
25263;SDS011;13211;51.796;5.808;2022-07-21T01:08:00;26.75;;;20.35;;
25263;SDS011;13211;51.796;5.808;2022-07-21T01:10:31;28.52;;;22.00;;
25263;SDS011;13211;51.796;5.808;2022-07-21T01:12:59;32.53;;;21.15;;
25263;SDS011;13211;51.796;5.808;2022-07-21T01:15:27;29.40;;;22.05;;
25263;SDS011;13211;51.796;5.808;2022-07-21T01:17:55;31.20;;;22.05;;
25263;SDS011;13211;51.796;5.808;2022-07-21T01:20:23;32.88;;;21.08;;
25263;SDS011;13211;51.796;5.808;2022-07-21T01:22:55;31.83;;;21.27;;
25263;SDS011;13211;51.796;5.808;2022-07-21T01:25:22;30.83;;;21.10;;
25263;SDS011;13211;51.796;5.808;2022-07-21T01:27:51;27.73;;;20.58;;
25263;SDS011;13211;51.796;5.808;2022-07-21T01:30:19;24.58;;;18.77;;
25263;SDS011;13211;51.796;5.808;2022-07-21T01:32:48;27.13;;;19.47;;
25263;SDS011;13211;51.796;5.808;2022-07-21T01:35:16;25.55;;;18.73;;
25263;SDS011;13211;51.796;5.808;2022-07-21T01:37:47;23.88;;;18.77;;
25263;SDS011;13211;51.796;5.808;2022-07-21T01:40:17;26.95;;;18.08;;
25263;SDS011;13211;51.796;5.808;2022-07-21T01:43:04;25.63;;;18.42;;
25263;SDS011;13211;51.796;5.808;2022-07-21T01:45:40;23.83;;;17.33;;
25263;SDS011;13211;51.796;5.808;2022-07-21T01:48:08;20.48;;;17.02;;
25263;SDS011;13211;51.796;5.808;2022-07-21T01:50:36;23.15;;;16.42;;
25263;SDS011;13211;51.796;5.808;2022-07-21T01:53:04;26.65;;;17.35;;
25263;SDS011;13211;51.796;5.808;2022-07-21T01:55:31;23.30;;;15.98;;
25263;SDS011;13211;51.796;5.808;2022-07-21T01:58:00;28.23;;;16.60;;
25263;SDS011;13211;51.796;5.808;2022-07-21T02:00:28;22.63;;;15.35;;
25263;SDS011;13211;51.796;5.808;2022-07-21T02:02:56;21.50;;;15.38;;
25263;SDS011;13211;51.796;5.808;2022-07-21T02:05:24;22.13;;;15.40;;
25263;SDS011;13211;51.796;5.808;2022-07-21T02:07:53;22.20;;;15.65;;
25263;SDS011;13211;51.796;5.808;2022-07-21T02:10:20;24.50;;;16.23;;
25263;SDS011;13211;51.796;5.808;2022-07-21T02:12:48;28.13;;;15.30;;
25263;SDS011;13211;51.796;5.808;2022-07-21T02:15:16;19.52;;;15.10;;
25263;SDS011;13211;51.796;5.808;2022-07-21T02:17:44;21.05;;;15.35;;
25263;SDS011;13211;51.796;5.808;2022-07-21T02:20:12;25.02;;;15.93;;
25263;SDS011;13211;51.796;5.808;2022-07-21T02:22:40;24.42;;;15.82;;
25263;SDS011;13211;51.796;5.808;2022-07-21T02:25:16;18.58;;;14.50;;
25263;SDS011;13211;51.796;5.808;2022-07-21T02:27:45;24.35;;;16.25;;
25263;SDS011;13211;51.796;5.808;2022-07-21T02:30:13;20.70;;;15.75;;
25263;SDS011;13211;51.796;5.808;2022-07-21T02:32:45;23.75;;;16.33;;
25263;SDS011;13211;51.796;5.808;2022-07-21T02:35:16;24.70;;;17.30;;
25263;SDS011;13211;51.796;5.808;2022-07-21T02:37:47;21.13;;;17.70;;
25263;SDS011;13211;51.796;5.808;2022-07-21T02:40:15;26.60;;;18.02;;
25263;SDS011;13211;51.796;5.808;2022-07-21T02:42:43;25.73;;;17.80;;
25263;SDS011;13211;51.796;5.808;2022-07-21T02:45:12;24.58;;;17.45;;
25263;SDS011;13211;51.796;5.808;2022-07-21T02:48:03;22.23;;;16.75;;
25263;SDS011;13211;51.796;5.808;2022-07-21T02:50:32;24.77;;;17.63;;
25263;SDS011;13211;51.796;5.808;2022-07-21T02:53:05;26.15;;;17.40;;
25263;SDS011;13211;51.796;5.808;2022-07-21T02:55:34;21.15;;;16.27;;
25263;SDS011;13211;51.796;5.808;2022-07-21T02:58:03;25.27;;;16.27;;
25263;SDS011;13211;51.796;5.808;2022-07-21T03:00:32;23.30;;;16.92;;
25263;SDS011;13211;51.796;5.808;2022-07-21T03:03:00;24.50;;;17.02;;
25263;SDS011;13211;51.796;5.808;2022-07-21T03:05:28;25.98;;;16.45;;
25263;SDS011;13211;51.796;5.808;2022-07-21T03:07:56;22.50;;;16.50;;
25263;SDS011;13211;51.796;5.808;2022-07-21T03:10:26;23.02;;;16.98;;
25263;SDS011;13211;51.796;5.808;2022-07-21T03:12:54;21.33;;;16.60;;
25263;SDS011;13211;51.796;5.808;2022-07-21T03:15:22;24.38;;;16.75;;
25263;SDS011;13211;51.796;5.808;2022-07-21T03:17:50;21.70;;;16.58;;
25263;SDS011;13211;51.796;5.808;2022-07-21T03:20:19;20.10;;;16.15;;
25263;SDS011;13211;51.796;5.808;2022-07-21T03:22:48;24.37;;;17.03;;
25263;SDS011;13211;51.796;5.808;2022-07-21T03:25:17;22.13;;;16.63;;
25263;SDS011;13211;51.796;5.808;2022-07-21T03:27:46;22.40;;;17.00;;
25263;SDS011;13211;51.796;5.808;2022-07-21T03:30:15;26.73;;;17.50;;
25263;SDS011;13211;51.796;5.808;2022-07-21T03:35:12;24.55;;;17.40;;
25263;SDS011;13211;51.796;5.808;2022-07-21T03:37:44;23.35;;;17.98;;
25263;SDS011;13211;51.796;5.808;2022-07-21T03:40:15;30.75;;;17.15;;
25263;SDS011;13211;51.796;5.808;2022-07-21T03:42:44;28.27;;;18.25;;
25263;SDS011;13211;51.796;5.808;2022-07-21T03:45:13;26.52;;;18.92;;
25263;SDS011;13211;51.796;5.808;2022-07-21T03:47:40;23.90;;;17.77;;
25263;SDS011;13211;51.796;5.808;2022-07-21T03:50:08;25.17;;;17.23;;
25263;SDS011;13211;51.796;5.808;2022-07-21T03:52:39;24.08;;;17.92;;
25263;SDS011;13211;51.796;5.808;2022-07-21T03:55:06;29.00;;;18.65;;
25263;SDS011;13211;51.796;5.808;2022-07-21T03:57:42;31.15;;;18.23;;
25263;SDS011;13211;51.796;5.808;2022-07-21T04:00:15;27.58;;;17.50;;
25263;SDS011;13211;51.796;5.808;2022-07-21T04:02:46;27.40;;;19.67;;
25263;SDS011;13211;51.796;5.808;2022-07-21T04:05:16;26.25;;;19.40;;
25263;SDS011;13211;51.796;5.808;2022-07-21T04:07:50;29.67;;;20.35;;
25263;SDS011;13211;51.796;5.808;2022-07-21T04:10:21;29.77;;;19.73;;
25263;SDS011;13211;51.796;5.808;2022-07-21T04:12:59;25.63;;;17.98;;
25263;SDS011;13211;51.796;5.808;2022-07-21T04:15:40;27.92;;;19.38;;
25263;SDS011;13211;51.796;5.808;2022-07-21T04:18:08;29.85;;;20.27;;
25263;SDS011;13211;51.796;5.808;2022-07-21T04:20:36;28.67;;;21.38;;
25263;SDS011;13211;51.796;5.808;2022-07-21T04:23:05;29.02;;;19.98;;
25263;SDS011;13211;51.796;5.808;2022-07-21T04:25:32;31.38;;;20.35;;
25263;SDS011;13211;51.796;5.808;2022-07-21T04:28:00;29.38;;;19.73;;
25263;SDS011;13211;51.796;5.808;2022-07-21T04:30:29;26.83;;;19.63;;
25263;SDS011;13211;51.796;5.808;2022-07-21T04:32:56;29.92;;;20.30;;
25263;SDS011;13211;51.796;5.808;2022-07-21T04:35:30;30.67;;;20.75;;
25263;SDS011;13211;51.796;5.808;2022-07-21T04:38:00;29.80;;;20.55;;
25263;SDS011;13211;51.796;5.808;2022-07-21T04:40:27;29.70;;;20.17;;
25263;SDS011;13211;51.796;5.808;2022-07-21T04:42:55;33.53;;;22.35;;
25263;SDS011;13211;51.796;5.808;2022-07-21T04:45:23;33.22;;;22.48;;
25263;SDS011;13211;51.796;5.808;2022-07-21T04:47:52;30.50;;;21.15;;
25263;SDS011;13211;51.796;5.808;2022-07-21T04:50:24;32.60;;;21.67;;
25263;SDS011;13211;51.796;5.808;2022-07-21T04:55:21;31.98;;;23.15;;
25263;SDS011;13211;51.796;5.808;2022-07-21T04:57:50;31.60;;;23.05;;
25263;SDS011;13211;51.796;5.808;2022-07-21T05:00:23;30.73;;;22.38;;
25263;SDS011;13211;51.796;5.808;2022-07-21T05:02:52;34.70;;;22.35;;
25263;SDS011;13211;51.796;5.808;2022-07-21T05:05:21;32.00;;;21.93;;
25263;SDS011;13211;51.796;5.808;2022-07-21T05:07:50;30.20;;;21.13;;
25263;SDS011;13211;51.796;5.808;2022-07-21T05:10:18;32.58;;;22.95;;
25263;SDS011;13211;51.796;5.808;2022-07-21T05:12:48;30.58;;;21.90;;
25263;SDS011;13211;51.796;5.808;2022-07-21T05:15:19;34.75;;;22.58;;
25263;SDS011;13211;51.796;5.808;2022-07-21T05:17:47;31.92;;;21.42;;
25263;SDS011;13211;51.796;5.808;2022-07-21T05:20:17;33.70;;;22.88;;
25263;SDS011;13211;51.796;5.808;2022-07-21T05:22:45;34.65;;;23.17;;
25263;SDS011;13211;51.796;5.808;2022-07-21T05:25:13;42.55;;;25.83;;
25263;SDS011;13211;51.796;5.808;2022-07-21T05:27:43;38.20;;;24.63;;
25263;SDS011;13211;51.796;5.808;2022-07-21T05:30:16;40.17;;;27.15;;
25263;SDS011;13211;51.796;5.808;2022-07-21T05:32:45;37.45;;;26.52;;
25263;SDS011;13211;51.796;5.808;2022-07-21T05:35:14;38.17;;;27.33;;
25263;SDS011;13211;51.796;5.808;2022-07-21T05:37:43;45.05;;;27.48;;
25263;SDS011;13211;51.796;5.808;2022-07-21T05:40:15;40.60;;;27.63;;
25263;SDS011;13211;51.796;5.808;2022-07-21T05:42:47;40.10;;;26.67;;
25263;SDS011;13211;51.796;5.808;2022-07-21T05:45:17;41.58;;;27.83;;
25263;SDS011;13211;51.796;5.808;2022-07-21T05:47:46;45.45;;;27.52;;
25263;SDS011;13211;51.796;5.808;2022-07-21T05:50:13;47.47;;;28.85;;
25263;SDS011;13211;51.796;5.808;2022-07-21T05:52:42;45.03;;;28.90;;
25263;SDS011;13211;51.796;5.808;2022-07-21T05:55:10;59.15;;;37.17;;
25263;SDS011;13211;51.796;5.808;2022-07-21T05:57:41;44.83;;;29.85;;
25263;SDS011;13211;51.796;5.808;2022-07-21T06:00:13;45.58;;;30.83;;
25263;SDS011;13211;51.796;5.808;2022-07-21T06:02:43;46.55;;;29.40;;
25263;SDS011;13211;51.796;5.808;2022-07-21T06:05:13;46.28;;;29.83;;
25263;SDS011;13211;51.796;5.808;2022-07-21T06:07:42;52.90;;;31.65;;
25263;SDS011;13211;51.796;5.808;2022-07-21T06:10:12;47.85;;;30.05;;
25263;SDS011;13211;51.796;5.808;2022-07-21T06:12:49;49.00;;;29.80;;
25263;SDS011;13211;51.796;5.808;2022-07-21T06:15:16;56.70;;;30.13;;
25263;SDS011;13211;51.796;5.808;2022-07-21T06:17:45;48.03;;;28.80;;
25263;SDS011;13211;51.796;5.808;2022-07-21T06:20:13;46.05;;;26.13;;
25263;SDS011;13211;51.796;5.808;2022-07-21T06:22:42;42.70;;;27.43;;
25263;SDS011;13211;51.796;5.808;2022-07-21T06:25:11;46.00;;;27.70;;
25263;SDS011;13211;51.796;5.808;2022-07-21T06:27:39;48.42;;;27.95;;
25263;SDS011;13211;51.796;5.808;2022-07-21T06:30:10;52.92;;;28.20;;
25263;SDS011;13211;51.796;5.808;2022-07-21T06:32:41;51.05;;;28.90;;
25263;SDS011;13211;51.796;5.808;2022-07-21T06:37:36;43.03;;;26.23;;
25263;SDS011;13211;51.796;5.808;2022-07-21T06:40:05;49.38;;;28.67;;
25263;SDS011;13211;51.796;5.808;2022-07-21T06:42:34;57.15;;;30.67;;
25263;SDS011;13211;51.796;5.808;2022-07-21T06:45:02;52.38;;;29.35;;
25263;SDS011;13211;51.796;5.808;2022-07-21T06:47:30;54.00;;;30.23;;
25263;SDS011;13211;51.796;5.808;2022-07-21T06:49:58;57.70;;;32.17;;
25263;SDS011;13211;51.796;5.808;2022-07-21T06:52:32;55.78;;;32.55;;
25263;SDS011;13211;51.796;5.808;2022-07-21T06:55:04;64.78;;;32.70;;
25263;SDS011;13211;51.796;5.808;2022-07-21T06:57:34;60.67;;;33.42;;
25263;SDS011;13211;51.796;5.808;2022-07-21T07:00:04;58.30;;;33.67;;
25263;SDS011;13211;51.796;5.808;2022-07-21T07:02:33;53.95;;;33.70;;
25263;SDS011;13211;51.796;5.808;2022-07-21T07:05:01;56.85;;;33.15;;
25263;SDS011;13211;51.796;5.808;2022-07-21T07:07:33;56.35;;;32.00;;
25263;SDS011;13211;51.796;5.808;2022-07-21T07:10:02;59.50;;;33.08;;
25263;SDS011;13211;51.796;5.808;2022-07-21T07:12:32;64.13;;;34.30;;
25263;SDS011;13211;51.796;5.808;2022-07-21T07:15:21;61.65;;;32.30;;
25263;SDS011;13211;51.796;5.808;2022-07-21T07:17:49;57.97;;;32.08;;
25263;SDS011;13211;51.796;5.808;2022-07-21T07:20:17;55.00;;;32.22;;
25263;SDS011;13211;51.796;5.808;2022-07-21T07:22:46;51.72;;;30.40;;
25263;SDS011;13211;51.796;5.808;2022-07-21T07:25:13;51.78;;;28.77;;
25263;SDS011;13211;51.796;5.808;2022-07-21T07:27:56;46.88;;;28.40;;
25263;SDS011;13211;51.796;5.808;2022-07-21T07:30:25;46.33;;;29.17;;
25263;SDS011;13211;51.796;5.808;2022-07-21T07:32:56;54.70;;;30.30;;
25263;SDS011;13211;51.796;5.808;2022-07-21T07:35:25;54.03;;;29.48;;
25263;SDS011;13211;51.796;5.808;2022-07-21T07:37:52;53.72;;;29.40;;
25263;SDS011;13211;51.796;5.808;2022-07-21T07:40:21;51.33;;;28.42;;
25263;SDS011;13211;51.796;5.808;2022-07-21T07:42:50;57.08;;;29.23;;
25263;SDS011;13211;51.796;5.808;2022-07-21T07:45:17;52.95;;;29.23;;
25263;SDS011;13211;51.796;5.808;2022-07-21T07:47:45;54.42;;;29.50;;
25263;SDS011;13211;51.796;5.808;2022-07-21T07:50:13;51.92;;;28.55;;
25263;SDS011;13211;51.796;5.808;2022-07-21T07:52:42;47.80;;;27.73;;
25263;SDS011;13211;51.796;5.808;2022-07-21T07:55:12;52.70;;;29.63;;
25263;SDS011;13211;51.796;5.808;2022-07-21T07:57:41;48.03;;;28.42;;
25263;SDS011;13211;51.796;5.808;2022-07-21T08:00:12;49.78;;;28.85;;
25263;SDS011;13211;51.796;5.808;2022-07-21T08:03:04;58.45;;;29.35;;
25263;SDS011;13211;51.796;5.808;2022-07-21T08:05:35;50.03;;;28.38;;
25263;SDS011;13211;51.796;5.808;2022-07-21T08:08:02;50.83;;;29.35;;
25263;SDS011;13211;51.796;5.808;2022-07-21T08:10:29;51.85;;;28.42;;
25263;SDS011;13211;51.796;5.808;2022-07-21T08:13:09;49.20;;;28.63;;
25263;SDS011;13211;51.796;5.808;2022-07-21T08:15:38;52.22;;;29.90;;
25263;SDS011;13211;51.796;5.808;2022-07-21T08:18:07;51.40;;;28.88;;
25263;SDS011;13211;51.796;5.808;2022-07-21T08:20:34;48.42;;;28.42;;
25263;SDS011;13211;51.796;5.808;2022-07-21T08:23:03;46.35;;;28.70;;
25263;SDS011;13211;51.796;5.808;2022-07-21T08:25:32;48.60;;;29.10;;
25263;SDS011;13211;51.796;5.808;2022-07-21T08:28:01;49.58;;;29.00;;
25263;SDS011;13211;51.796;5.808;2022-07-21T08:30:28;55.50;;;29.25;;
25263;SDS011;13211;51.796;5.808;2022-07-21T08:32:58;48.10;;;29.40;;
25263;SDS011;13211;51.796;5.808;2022-07-21T08:35:27;57.25;;;29.42;;
25263;SDS011;13211;51.796;5.808;2022-07-21T08:40:27;53.05;;;28.52;;
25263;SDS011;13211;51.796;5.808;2022-07-21T08:42:56;55.88;;;29.27;;
25263;SDS011;13211;51.796;5.808;2022-07-21T08:45:25;60.72;;;29.33;;
25263;SDS011;13211;51.796;5.808;2022-07-21T08:47:55;48.75;;;29.05;;
25263;SDS011;13211;51.796;5.808;2022-07-21T08:50:30;47.60;;;27.50;;
25263;SDS011;13211;51.796;5.808;2022-07-21T08:53:00;53.15;;;28.20;;
25263;SDS011;13211;51.796;5.808;2022-07-21T08:55:29;65.18;;;39.72;;
25263;SDS011;13211;51.796;5.808;2022-07-21T08:57:57;47.00;;;25.20;;
25263;SDS011;13211;51.796;5.808;2022-07-21T09:00:26;44.08;;;24.83;;
25263;SDS011;13211;51.796;5.808;2022-07-21T09:05:43;34.97;;;16.35;;
25263;SDS011;13211;51.796;5.808;2022-07-21T09:08:46;23.15;;;13.13;;
25263;SDS011;13211;51.796;5.808;2022-07-21T09:14:04;12.48;;;8.30;;
25263;SDS011;13211;51.796;5.808;2022-07-21T09:16:42;14.13;;;8.95;;
25263;SDS011;13211;51.796;5.808;2022-07-21T09:19:32;12.75;;;7.53;;
25263;SDS011;13211;51.796;5.808;2022-07-21T09:22:03;9.68;;;7.40;;
25263;SDS011;13211;51.796;5.808;2022-07-21T09:24:40;11.65;;;6.80;;
25263;SDS011;13211;51.796;5.808;2022-07-21T09:27:10;9.65;;;6.93;;
25263;SDS011;13211;51.796;5.808;2022-07-21T09:32:25;10.13;;;7.15;;
25263;SDS011;13211;51.796;5.808;2022-07-21T09:34:54;10.65;;;6.75;;
25263;SDS011;13211;51.796;5.808;2022-07-21T09:37:33;13.13;;;7.03;;
25263;SDS011;13211;51.796;5.808;2022-07-21T09:40:05;12.07;;;7.35;;
25263;SDS011;13211;51.796;5.808;2022-07-21T09:42:41;10.18;;;7.50;;
25263;SDS011;13211;51.796;5.808;2022-07-21T09:45:13;14.57;;;7.78;;
25263;SDS011;13211;51.796;5.808;2022-07-21T09:47:44;14.50;;;8.05;;
25263;SDS011;13211;51.796;5.808;2022-07-21T09:50:13;14.10;;;8.05;;
25263;SDS011;13211;51.796;5.808;2022-07-21T09:52:50;13.10;;;7.85;;
25263;SDS011;13211;51.796;5.808;2022-07-21T09:55:22;9.57;;;7.78;;
25263;SDS011;13211;51.796;5.808;2022-07-21T09:57:51;15.55;;;9.43;;
25263;SDS011;13211;51.796;5.808;2022-07-21T10:00:19;11.95;;;9.10;;
25263;SDS011;13211;51.796;5.808;2022-07-21T10:02:47;14.07;;;9.35;;
25263;SDS011;13211;51.796;5.808;2022-07-21T10:05:17;15.45;;;9.75;;
25263;SDS011;13211;51.796;5.808;2022-07-21T10:07:48;15.77;;;10.40;;
25263;SDS011;13211;51.796;5.808;2022-07-21T10:10:19;16.13;;;10.27;;
25263;SDS011;13211;51.796;5.808;2022-07-21T10:12:50;12.23;;;9.68;;
25263;SDS011;13211;51.796;5.808;2022-07-21T10:15:22;14.38;;;10.13;;
25263;SDS011;13211;51.796;5.808;2022-07-21T10:17:51;16.13;;;10.38;;
25263;SDS011;13211;51.796;5.808;2022-07-21T10:20:24;15.32;;;11.10;;
25263;SDS011;13211;51.796;5.808;2022-07-21T10:23:06;15.93;;;11.88;;
25263;SDS011;13211;51.796;5.808;2022-07-21T10:26:05;15.27;;;11.57;;
25263;SDS011;13211;51.796;5.808;2022-07-21T10:28:33;15.15;;;12.07;;
25263;SDS011;13211;51.796;5.808;2022-07-21T10:34:08;19.60;;;13.18;;
25263;SDS011;13211;51.796;5.808;2022-07-21T10:41:42;22.80;;;13.80;;
25263;SDS011;13211;51.796;5.808;2022-07-21T10:49:45;17.70;;;13.45;;
25263;SDS011;13211;51.796;5.808;2022-07-21T10:57:41;18.30;;;14.38;;
25263;SDS011;13211;51.796;5.808;2022-07-21T11:00:22;19.08;;;15.05;;
25263;SDS011;13211;51.796;5.808;2022-07-21T11:02:57;22.83;;;15.93;;
25263;SDS011;13211;51.796;5.808;2022-07-21T11:05:33;21.17;;;14.98;;
25263;SDS011;13211;51.796;5.808;2022-07-21T11:08:08;20.35;;;14.68;;
25263;SDS011;13211;51.796;5.808;2022-07-21T11:10:40;19.27;;;14.77;;
25263;SDS011;13211;51.796;5.808;2022-07-21T11:13:11;19.88;;;14.40;;
25263;SDS011;13211;51.796;5.808;2022-07-21T11:15:58;15.90;;;13.10;;
25263;SDS011;13211;51.796;5.808;2022-07-21T11:18:32;16.25;;;11.88;;
25263;SDS011;13211;51.796;5.808;2022-07-21T11:21:13;13.10;;;10.38;;
25263;SDS011;13211;51.796;5.808;2022-07-21T11:23:44;12.18;;;9.73;;
25263;SDS011;13211;51.796;5.808;2022-07-21T11:26:15;12.25;;;9.63;;
25263;SDS011;13211;51.796;5.808;2022-07-21T11:28:45;15.95;;;10.57;;
25263;SDS011;13211;51.796;5.808;2022-07-21T11:31:17;14.15;;;10.35;;
25263;SDS011;13211;51.796;5.808;2022-07-21T11:33:51;19.58;;;11.43;;
25263;SDS011;13211;51.796;5.808;2022-07-21T11:36:24;15.82;;;11.15;;
25263;SDS011;13211;51.796;5.808;2022-07-21T11:39:05;16.15;;;11.30;;
25263;SDS011;13211;51.796;5.808;2022-07-21T11:41:36;20.50;;;11.77;;
25263;SDS011;13211;51.796;5.808;2022-07-21T11:44:05;17.67;;;11.50;;
25263;SDS011;13211;51.796;5.808;2022-07-21T11:46:51;14.57;;;11.27;;
25263;SDS011;13211;51.796;5.808;2022-07-21T11:49:24;17.48;;;11.80;;
25263;SDS011;13211;51.796;5.808;2022-07-21T11:51:56;19.42;;;12.45;;
25263;SDS011;13211;51.796;5.808;2022-07-21T11:54:28;19.13;;;12.38;;
25263;SDS011;13211;51.796;5.808;2022-07-21T11:57:03;15.35;;;11.70;;
25263;SDS011;13211;51.796;5.808;2022-07-21T11:59:32;17.02;;;11.20;;
25263;SDS011;13211;51.796;5.808;2022-07-21T12:02:04;26.98;;;12.75;;
25263;SDS011;13211;51.796;5.808;2022-07-21T12:04:43;17.25;;;11.00;;
25263;SDS011;13211;51.796;5.808;2022-07-21T12:07:16;19.27;;;11.52;;
25263;SDS011;13211;51.796;5.808;2022-07-21T12:09:47;17.35;;;11.57;;
25263;SDS011;13211;51.796;5.808;2022-07-21T12:15:20;18.77;;;11.52;;
25263;SDS011;13211;51.796;5.808;2022-07-21T12:18:00;15.60;;;10.88;;
25263;SDS011;13211;51.796;5.808;2022-07-21T12:20:32;16.38;;;11.05;;
25263;SDS011;13211;51.796;5.808;2022-07-21T12:23:20;18.50;;;11.95;;
25263;SDS011;13211;51.796;5.808;2022-07-21T12:25:50;17.65;;;12.20;;
25263;SDS011;13211;51.796;5.808;2022-07-21T12:31:17;23.00;;;14.35;;
25263;SDS011;13211;51.796;5.808;2022-07-21T12:33:51;20.38;;;15.18;;
25263;SDS011;13211;51.796;5.808;2022-07-21T12:36:45;25.88;;;16.45;;
25263;SDS011;13211;51.796;5.808;2022-07-21T12:42:05;21.33;;;16.08;;
25263;SDS011;13211;51.796;5.808;2022-07-21T12:44:34;21.92;;;15.27;;
25263;SDS011;13211;51.796;5.808;2022-07-21T12:52:40;20.17;;;14.70;;
25263;SDS011;13211;51.796;5.808;2022-07-21T12:55:08;20.52;;;14.15;;
25263;SDS011;13211;51.796;5.808;2022-07-21T12:57:35;20.58;;;14.18;;
25263;SDS011;13211;51.796;5.808;2022-07-21T13:00:03;17.05;;;13.90;;
25263;SDS011;13211;51.796;5.808;2022-07-21T13:02:44;21.58;;;13.35;;
25263;SDS011;13211;51.796;5.808;2022-07-21T13:05:15;14.63;;;11.68;;
25263;SDS011;13211;51.796;5.808;2022-07-21T13:07:42;17.23;;;10.40;;
25263;SDS011;13211;51.796;5.808;2022-07-21T13:10:10;11.50;;;9.80;;
25263;SDS011;13211;51.796;5.808;2022-07-21T13:12:38;13.65;;;10.23;;
25263;SDS011;13211;51.796;5.808;2022-07-21T13:15:08;12.88;;;10.38;;
25263;SDS011;13211;51.796;5.808;2022-07-21T13:17:37;10.95;;;9.02;;
25263;SDS011;13211;51.796;5.808;2022-07-21T13:20:05;13.05;;;10.35;;
25263;SDS011;13211;51.796;5.808;2022-07-21T13:22:35;10.07;;;9.05;;
25263;SDS011;13211;51.796;5.808;2022-07-21T13:25:03;11.75;;;9.07;;
25263;SDS011;13211;51.796;5.808;2022-07-21T13:27:32;12.98;;;9.18;;
25263;SDS011;13211;51.796;5.808;2022-07-21T13:30:02;10.15;;;7.95;;
25263;SDS011;13211;51.796;5.808;2022-07-21T13:32:33;10.05;;;7.40;;
25263;SDS011;13211;51.796;5.808;2022-07-21T13:35:06;12.05;;;7.95;;
25263;SDS011;13211;51.796;5.808;2022-07-21T13:37:57;9.68;;;8.20;;
25263;SDS011;13211;51.796;5.808;2022-07-21T13:40:25;9.75;;;7.85;;
25263;SDS011;13211;51.796;5.808;2022-07-21T13:43:15;11.55;;;7.95;;
25263;SDS011;13211;51.796;5.808;2022-07-21T13:46:03;9.85;;;7.28;;
25263;SDS011;13211;51.796;5.808;2022-07-21T13:48:31;11.63;;;7.70;;
25263;SDS011;13211;51.796;5.808;2022-07-21T13:51:08;9.63;;;7.03;;
25263;SDS011;13211;51.796;5.808;2022-07-21T13:53:36;10.65;;;7.22;;
25263;SDS011;13211;51.796;5.808;2022-07-21T13:56:05;12.45;;;8.52;;
25263;SDS011;13211;51.796;5.808;2022-07-21T13:58:36;14.00;;;8.73;;
25263;SDS011;13211;51.796;5.808;2022-07-21T14:03:35;12.18;;;8.75;;
25263;SDS011;13211;51.796;5.808;2022-07-21T14:06:04;11.38;;;9.15;;
25263;SDS011;13211;51.796;5.808;2022-07-21T14:08:33;14.73;;;10.10;;
25263;SDS011;13211;51.796;5.808;2022-07-21T14:11:02;12.38;;;11.02;;
25263;SDS011;13211;51.796;5.808;2022-07-21T14:13:32;17.80;;;12.17;;
25263;SDS011;13211;51.796;5.808;2022-07-21T14:16:03;17.20;;;11.70;;
25263;SDS011;13211;51.796;5.808;2022-07-21T14:18:37;12.32;;;10.15;;
25263;SDS011;13211;51.796;5.808;2022-07-21T14:21:05;14.73;;;10.48;;
25263;SDS011;13211;51.796;5.808;2022-07-21T14:23:33;11.77;;;8.90;;
25263;SDS011;13211;51.796;5.808;2022-07-21T14:26:02;12.77;;;10.20;;
25263;SDS011;13211;51.796;5.808;2022-07-21T14:28:32;13.50;;;8.52;;
25263;SDS011;13211;51.796;5.808;2022-07-21T14:31:02;10.05;;;7.85;;
25263;SDS011;13211;51.796;5.808;2022-07-21T14:33:30;11.70;;;7.53;;
25263;SDS011;13211;51.796;5.808;2022-07-21T14:35:58;11.45;;;8.90;;
25263;SDS011;13211;51.796;5.808;2022-07-21T14:38:26;11.40;;;9.02;;
25263;SDS011;13211;51.796;5.808;2022-07-21T14:40:55;11.55;;;8.07;;
25263;SDS011;13211;51.796;5.808;2022-07-21T14:43:24;10.40;;;7.78;;
25263;SDS011;13211;51.796;5.808;2022-07-21T14:45:52;10.40;;;6.93;;
25263;SDS011;13211;51.796;5.808;2022-07-21T14:48:21;13.07;;;6.15;;
25263;SDS011;13211;51.796;5.808;2022-07-21T14:50:50;11.35;;;5.78;;
25263;SDS011;13211;51.796;5.808;2022-07-21T14:53:18;10.27;;;5.72;;
25263;SDS011;13211;51.796;5.808;2022-07-21T14:55:46;9.63;;;5.30;;
25263;SDS011;13211;51.796;5.808;2022-07-21T14:58:15;8.70;;;5.32;;
25263;SDS011;13211;51.796;5.808;2022-07-21T15:00:44;9.25;;;5.13;;
25263;SDS011;13211;51.796;5.808;2022-07-21T15:03:13;7.43;;;5.40;;
25263;SDS011;13211;51.796;5.808;2022-07-21T15:05:42;12.52;;;5.18;;
25263;SDS011;13211;51.796;5.808;2022-07-21T15:08:11;8.82;;;4.20;;
25263;SDS011;13211;51.796;5.808;2022-07-21T15:10:41;13.73;;;5.23;;
25263;SDS011;13211;51.796;5.808;2022-07-21T15:13:11;5.07;;;3.28;;
25263;SDS011;13211;51.796;5.808;2022-07-21T15:15:40;5.68;;;3.30;;
25263;SDS011;13211;51.796;5.808;2022-07-21T15:18:08;7.03;;;3.67;;
25263;SDS011;13211;51.796;5.808;2022-07-21T15:20:36;7.30;;;2.92;;
25263;SDS011;13211;51.796;5.808;2022-07-21T15:23:04;5.85;;;2.70;;
25263;SDS011;13211;51.796;5.808;2022-07-21T15:25:33;4.53;;;2.30;;
25263;SDS011;13211;51.796;5.808;2022-07-21T15:28:05;4.68;;;2.75;;
25263;SDS011;13211;51.796;5.808;2022-07-21T15:30:33;4.70;;;3.03;;
25263;SDS011;13211;51.796;5.808;2022-07-21T15:33:01;4.47;;;2.78;;
25263;SDS011;13211;51.796;5.808;2022-07-21T15:35:29;4.78;;;2.80;;
25263;SDS011;13211;51.796;5.808;2022-07-21T15:37:57;5.63;;;2.80;;
25263;SDS011;13211;51.796;5.808;2022-07-21T15:40:24;6.10;;;3.05;;
25263;SDS011;13211;51.796;5.808;2022-07-21T15:42:53;4.85;;;2.63;;